Aérodrome :
LOGIN :

S'inscrire | Disclaimer

   EN    FR    IT 

 










Légende :    VFR   VFR Marginal   IFR   IFR Intensif   IFR Très Intensif
Visi : 
Plafond : 
>= 8 km
>= 3000ft
5 à 8 km
1000 à 3000 ft
1500m à 5 km
500 à 1000 ft
800 à 1500m
200 à 500 ft
< 800m
< 200 ft
Symboles :   Orages  Brouillard  Fortes neiges  Fortes précipitations  Vent > 20 kt
SIGMETs :   Divers  Orages  Givrage  Turbulence  Onde Orograph.  Cendres Volcan.







- Altitude de l'aérodrome : 267 ft


EGDR - Culdrose Navy

DERNIER METAR :
  • 211329Z 22005KT 9999 FEW004 SCT006 12/10 Q1033 YLO1 TEMPO 3000 BR FEW002 SCT004 YLO2

METARs EXPIRÉS :
  • 211250Z 23004KT 9999 FEW002 SCT005 BKN016 11/09 Q1034 YLO1 TEMPO 3000 BR FEW002 SCT004 YLO2
  • 211226Z 23004KT 9999 FEW002 SCT005 BKN016 11/09 Q1034 YLO1 TEMPO 3000 BR FEW002 SCT004 YLO2
  • 211122Z 23005KT 6000 HZ FEW001 SCT005 BKN007 10/09 Q1034 YLO1 TEMPO 3000 BR FEW002 SCT004 YLO2
  • 211050Z 22006KT 5000 BR FEW001 SCT005 BKN007 11/10 Q1034 YLO1 TEMPO 3000 BR SCT002 AMB

TAF AMD TAF EGDR
Valide du 21 à 12h jusqu'au 21 à 21h UTC


211331Z 2112/2121 22005KT 5000 BR FEW002 SCT004 BKN006
BECMG 2118/2121 9999 NSW FEW006 SCT008
PROB40
TEMPO 2118/2121 SCT006
Pas de NOTAMs connus pour ce terrain.



MET'MAP, la Météo Aéronautique d'un coup d'oeil ! - Copyright ORBIFLY Décembre 2007 - Disclaimer

ORBIFLY MET'MAP TEAM :

Programmation & Développement : Alexandra Zaïnal
Conception & Développement : Baudouin d'Aumeries
Co-Programmation & Développement : Marc-Olivier Méhu
Soutien technique & logistique : Manuel Goepfert

Contact : metmap@orbifly.com




SOURCES & CREDITS :

   NOAA